sensor_id;sensor_type;location;lat;lon;timestamp;pressure;altitude;pressure_sealevel;temperature;humidity
18819;BME280;9537;45.594;9.294;2023-07-20T00:00:45;99057.22;;;30.51;48.55
18819;BME280;9537;45.594;9.294;2023-07-20T00:01:47;99065.88;;;30.53;48.18
18819;BME280;9537;45.594;9.294;2023-07-20T00:02:50;99068.41;;;30.50;48.26
18819;BME280;9537;45.594;9.294;2023-07-20T00:03:52;99065.22;;;30.48;48.31
18819;BME280;9537;45.594;9.294;2023-07-20T00:04:55;99071.78;;;30.47;48.33
18819;BME280;9537;45.594;9.294;2023-07-20T00:05:57;99074.84;;;30.45;48.42
18819;BME280;9537;45.594;9.294;2023-07-20T00:06:57;99070.84;;;30.43;48.88
18819;BME280;9537;45.594;9.294;2023-07-20T00:08:01;99071.31;;;30.45;48.50
18819;BME280;9537;45.594;9.294;2023-07-20T00:09:01;99078.38;;;30.46;49.10
18819;BME280;9537;45.594;9.294;2023-07-20T00:10:04;99071.78;;;30.47;48.54
18819;BME280;9537;45.594;9.294;2023-07-20T00:11:04;99073.72;;;30.46;49.11
18819;BME280;9537;45.594;9.294;2023-07-20T00:12:07;99070.50;;;30.44;48.78
18819;BME280;9537;45.594;9.294;2023-07-20T00:13:08;99070.03;;;30.42;49.40
18819;BME280;9537;45.594;9.294;2023-07-20T00:14:10;99070.34;;;30.41;49.04
18819;BME280;9537;45.594;9.294;2023-07-20T00:15:12;99075.00;;;30.40;49.44
18819;BME280;9537;45.594;9.294;2023-07-20T00:16:14;99074.66;;;30.42;49.20
18819;BME280;9537;45.594;9.294;2023-07-20T00:17:14;99082.81;;;30.42;49.14
18819;BME280;9537;45.594;9.294;2023-07-20T00:18:16;99081.38;;;30.36;49.85
18819;BME280;9537;45.594;9.294;2023-07-20T00:19:17;99075.78;;;30.32;49.43
18819;BME280;9537;45.594;9.294;2023-07-20T00:20:17;99087.44;;;30.24;50.30
18819;BME280;9537;45.594;9.294;2023-07-20T00:21:19;99086.34;;;30.25;49.88
18819;BME280;9537;45.594;9.294;2023-07-20T00:22:20;99091.78;;;30.25;49.91
18819;BME280;9537;45.594;9.294;2023-07-20T00:23:22;99093.22;;;30.22;50.57
18819;BME280;9537;45.594;9.294;2023-07-20T00:24:23;99092.06;;;30.15;50.46
18819;BME280;9537;45.594;9.294;2023-07-20T00:25:25;99093.34;;;30.17;50.49
18819;BME280;9537;45.594;9.294;2023-07-20T00:26:25;99098.63;;;30.14;51.09
18819;BME280;9537;45.594;9.294;2023-07-20T00:27:27;99099.09;;;30.16;50.98
18819;BME280;9537;45.594;9.294;2023-07-20T00:28:28;99097.97;;;30.08;51.16
18819;BME280;9537;45.594;9.294;2023-07-20T00:29:30;99107.72;;;30.09;51.20
18819;BME280;9537;45.594;9.294;2023-07-20T00:30:32;99105.16;;;30.04;51.60
18819;BME280;9537;45.594;9.294;2023-07-20T00:31:33;99101.47;;;30.00;51.62
18819;BME280;9537;45.594;9.294;2023-07-20T00:32:35;99103.69;;;29.98;52.14
18819;BME280;9537;45.594;9.294;2023-07-20T00:33:37;99106.25;;;29.94;52.51
18819;BME280;9537;45.594;9.294;2023-07-20T00:34:38;99113.28;;;29.95;52.17
18819;BME280;9537;45.594;9.294;2023-07-20T00:35:39;99116.81;;;29.96;52.73
18819;BME280;9537;45.594;9.294;2023-07-20T00:36:40;99119.53;;;29.96;52.57
18819;BME280;9537;45.594;9.294;2023-07-20T00:37:42;99108.47;;;29.92;52.93
18819;BME280;9537;45.594;9.294;2023-07-20T00:38:44;99116.34;;;29.94;52.99
18819;BME280;9537;45.594;9.294;2023-07-20T00:39:44;99124.50;;;29.94;53.26
18819;BME280;9537;45.594;9.294;2023-07-20T00:40:46;99127.03;;;29.90;53.28
18819;BME280;9537;45.594;9.294;2023-07-20T00:41:47;99127.66;;;29.87;54.07
18819;BME280;9537;45.594;9.294;2023-07-20T00:42:48;99126.56;;;29.88;54.22
18819;BME280;9537;45.594;9.294;2023-07-20T00:43:50;99125.09;;;29.82;54.18
18819;BME280;9537;45.594;9.294;2023-07-20T00:44:52;99125.38;;;29.80;54.34
18819;BME280;9537;45.594;9.294;2023-07-20T00:45:54;99118.66;;;29.78;54.17
18819;BME280;9537;45.594;9.294;2023-07-20T00:46:57;99121.38;;;29.78;54.36
18819;BME280;9537;45.594;9.294;2023-07-20T00:47:57;99117.72;;;29.82;54.49
18819;BME280;9537;45.594;9.294;2023-07-20T00:49:00;99111.00;;;29.80;54.55
18819;BME280;9537;45.594;9.294;2023-07-20T00:50:02;99110.19;;;29.79;54.48
18819;BME280;9537;45.594;9.294;2023-07-20T00:51:03;99111.13;;;29.75;54.49
18819;BME280;9537;45.594;9.294;2023-07-20T00:52:06;99104.09;;;29.74;54.11
18819;BME280;9537;45.594;9.294;2023-07-20T00:53:08;99106.47;;;29.75;54.14
18819;BME280;9537;45.594;9.294;2023-07-20T00:54:09;99101.34;;;29.74;54.04
18819;BME280;9537;45.594;9.294;2023-07-20T00:55:11;99105.81;;;29.70;54.75
18819;BME280;9537;45.594;9.294;2023-07-20T00:56:12;99105.34;;;29.68;54.26
18819;BME280;9537;45.594;9.294;2023-07-20T00:57:14;99107.06;;;29.63;54.66
18819;BME280;9537;45.594;9.294;2023-07-20T00:58:15;99102.75;;;29.62;54.18
18819;BME280;9537;45.594;9.294;2023-07-20T00:59:17;99105.13;;;29.64;54.53
18819;BME280;9537;45.594;9.294;2023-07-20T01:00:18;99104.94;;;29.60;54.30
18819;BME280;9537;45.594;9.294;2023-07-20T01:01:22;99108.78;;;29.59;54.34
18819;BME280;9537;45.594;9.294;2023-07-20T01:02:23;99110.06;;;29.62;53.85
18819;BME280;9537;45.594;9.294;2023-07-20T01:03:24;99105.72;;;29.61;53.84
18819;BME280;9537;45.594;9.294;2023-07-20T01:04:25;99105.56;;;29.57;53.53
18819;BME280;9537;45.594;9.294;2023-07-20T01:05:36;99114.34;;;29.54;53.95
18819;BME280;9537;45.594;9.294;2023-07-20T01:06:47;99104.75;;;29.57;54.16
18819;BME280;9537;45.594;9.294;2023-07-20T01:07:55;99096.91;;;29.55;54.00
18819;BME280;9537;45.594;9.294;2023-07-20T01:09:05;99100.75;;;29.54;53.46
18819;BME280;9537;45.594;9.294;2023-07-20T01:10:11;99097.53;;;29.52;53.78
18819;BME280;9537;45.594;9.294;2023-07-20T01:11:28;99098.94;;;29.50;53.60
18819;BME280;9537;45.594;9.294;2023-07-20T01:12:40;99097.66;;;29.47;53.58
18819;BME280;9537;45.594;9.294;2023-07-20T01:13:43;99098.44;;;29.39;54.00
18819;BME280;9537;45.594;9.294;2023-07-20T01:14:44;99094.72;;;29.35;53.79
18819;BME280;9537;45.594;9.294;2023-07-20T01:15:49;99107.50;;;29.34;54.13
18819;BME280;9537;45.594;9.294;2023-07-20T01:16:52;99097.94;;;29.37;53.62
18819;BME280;9537;45.594;9.294;2023-07-20T01:17:53;99096.63;;;29.34;53.51
18819;BME280;9537;45.594;9.294;2023-07-20T01:18:54;99101.69;;;29.27;54.14
18819;BME280;9537;45.594;9.294;2023-07-20T01:19:56;99099.59;;;29.24;54.03
18819;BME280;9537;45.594;9.294;2023-07-20T01:21:01;99096.41;;;29.22;54.24
18819;BME280;9537;45.594;9.294;2023-07-20T01:22:11;99096.06;;;29.24;54.00
18819;BME280;9537;45.594;9.294;2023-07-20T01:23:31;99088.03;;;29.18;53.93
18819;BME280;9537;45.594;9.294;2023-07-20T01:24:55;99091.88;;;29.17;54.06
18819;BME280;9537;45.594;9.294;2023-07-20T01:26:15;99081.63;;;29.14;53.93
18819;BME280;9537;45.594;9.294;2023-07-20T01:27:51;99081.63;;;29.14;54.21
18819;BME280;9537;45.594;9.294;2023-07-20T01:29:24;99071.38;;;29.11;54.26
18819;BME280;9537;45.594;9.294;2023-07-20T01:30:53;99074.59;;;29.13;54.51
18819;BME280;9537;45.594;9.294;2023-07-20T01:31:59;99075.22;;;29.10;54.11
18819;BME280;9537;45.594;9.294;2023-07-20T01:33:03;99071.47;;;29.06;54.75
18819;BME280;9537;45.594;9.294;2023-07-20T01:34:08;99073.19;;;29.02;54.61
18819;BME280;9537;45.594;9.294;2023-07-20T01:35:10;99080.84;;;29.00;54.77
18819;BME280;9537;45.594;9.294;2023-07-20T01:36:16;99072.19;;;28.98;54.83
18819;BME280;9537;45.594;9.294;2023-07-20T01:37:20;99077.00;;;29.01;54.49
18819;BME280;9537;45.594;9.294;2023-07-20T01:38:25;99081.97;;;28.99;54.70
18819;BME280;9537;45.594;9.294;2023-07-20T01:39:28;99074.72;;;28.94;54.64
18819;BME280;9537;45.594;9.294;2023-07-20T01:40:29;99079.66;;;28.92;54.98
18819;BME280;9537;45.594;9.294;2023-07-20T01:41:31;99072.94;;;28.90;54.74
18819;BME280;9537;45.594;9.294;2023-07-20T01:42:32;99078.38;;;28.90;54.79
18819;BME280;9537;45.594;9.294;2023-07-20T01:43:34;99073.53;;;28.87;55.30
18819;BME280;9537;45.594;9.294;2023-07-20T01:44:36;99064.31;;;28.88;54.98
18819;BME280;9537;45.594;9.294;2023-07-20T01:45:38;99075.47;;;28.86;55.04
18819;BME280;9537;45.594;9.294;2023-07-20T01:46:39;99068.72;;;28.84;55.23
18819;BME280;9537;45.594;9.294;2023-07-20T01:47:43;99068.56;;;28.80;55.40
18819;BME280;9537;45.594;9.294;2023-07-20T01:48:44;99066.63;;;28.81;55.17
18819;BME280;9537;45.594;9.294;2023-07-20T01:49:45;99069.06;;;28.82;55.71
18819;BME280;9537;45.594;9.294;2023-07-20T01:50:46;99064.91;;;28.85;55.28
18819;BME280;9537;45.594;9.294;2023-07-20T01:51:48;99065.22;;;28.83;55.26
18819;BME280;9537;45.594;9.294;2023-07-20T01:52:49;99070.34;;;28.85;55.34
18819;BME280;9537;45.594;9.294;2023-07-20T01:53:50;99065.84;;;28.80;55.42
18819;BME280;9537;45.594;9.294;2023-07-20T01:54:51;99060.22;;;28.77;55.91
18819;BME280;9537;45.594;9.294;2023-07-20T01:55:53;99063.22;;;28.75;55.58
18819;BME280;9537;45.594;9.294;2023-07-20T01:56:54;99053.66;;;28.78;55.71
18819;BME280;9537;45.594;9.294;2023-07-20T01:57:55;99062.94;;;28.77;55.55
18819;BME280;9537;45.594;9.294;2023-07-20T01:58:56;99060.22;;;28.77;55.77
18819;BME280;9537;45.594;9.294;2023-07-20T01:59:57;99056.38;;;28.78;55.70
18819;BME280;9537;45.594;9.294;2023-07-20T02:00:58;99061.31;;;28.75;55.66
18819;BME280;9537;45.594;9.294;2023-07-20T02:02:00;99058.28;;;28.77;55.85
18819;BME280;9537;45.594;9.294;2023-07-20T02:03:02;99051.75;;;28.78;55.53
18819;BME280;9537;45.594;9.294;2023-07-20T02:04:03;99045.31;;;28.74;55.91
18819;BME280;9537;45.594;9.294;2023-07-20T02:05:04;99056.38;;;28.78;55.97
18819;BME280;9537;45.594;9.294;2023-07-20T02:06:08;99050.31;;;28.81;55.74
18819;BME280;9537;45.594;9.294;2023-07-20T02:07:10;99054.66;;;28.82;55.55
18819;BME280;9537;45.594;9.294;2023-07-20T02:08:10;99057.38;;;28.82;56.02
18819;BME280;9537;45.594;9.294;2023-07-20T02:09:12;99058.97;;;28.83;55.79
18819;BME280;9537;45.594;9.294;2023-07-20T02:10:13;99060.41;;;28.80;56.08
18819;BME280;9537;45.594;9.294;2023-07-20T02:11:14;99055.59;;;28.77;56.15
18819;BME280;9537;45.594;9.294;2023-07-20T02:12:15;99059.22;;;28.72;56.31
18819;BME280;9537;45.594;9.294;2023-07-20T02:13:17;99054.50;;;28.64;56.29
18819;BME280;9537;45.594;9.294;2023-07-20T02:14:17;99060.88;;;28.60;56.63
18819;BME280;9537;45.594;9.294;2023-07-20T02:15:19;99060.38;;;28.58;56.54
18819;BME280;9537;45.594;9.294;2023-07-20T02:16:20;99058.44;;;28.58;56.34
18819;BME280;9537;45.594;9.294;2023-07-20T02:17:21;99062.09;;;28.54;56.54
18819;BME280;9537;45.594;9.294;2023-07-20T02:18:24;99054.97;;;28.44;57.04
18819;BME280;9537;45.594;9.294;2023-07-20T02:19:25;99060.97;;;28.41;57.05
18819;BME280;9537;45.594;9.294;2023-07-20T02:20:26;99052.13;;;28.35;57.30
18819;BME280;9537;45.594;9.294;2023-07-20T02:21:28;99046.53;;;28.32;57.61
18819;BME280;9537;45.594;9.294;2023-07-20T02:22:29;99048.25;;;28.27;57.72
18819;BME280;9537;45.594;9.294;2023-07-20T02:23:30;99047.50;;;28.36;57.47
18819;BME280;9537;45.594;9.294;2023-07-20T02:24:32;99049.13;;;28.37;57.45
18819;BME280;9537;45.594;9.294;2023-07-20T02:25:34;99054.16;;;28.29;57.48
18819;BME280;9537;45.594;9.294;2023-07-20T02:26:35;99057.47;;;28.26;57.79
18819;BME280;9537;45.594;9.294;2023-07-20T02:27:37;99062.91;;;28.26;57.86
18819;BME280;9537;45.594;9.294;2023-07-20T02:28:39;99065.53;;;28.32;57.76
18819;BME280;9537;45.594;9.294;2023-07-20T02:29:42;99064.53;;;28.27;57.84
18819;BME280;9537;45.594;9.294;2023-07-20T02:30:42;99063.03;;;28.21;58.25
18819;BME280;9537;45.594;9.294;2023-07-20T02:31:44;99050.38;;;28.17;58.45
18819;BME280;9537;45.594;9.294;2023-07-20T02:32:45;99053.19;;;28.12;58.28
18819;BME280;9537;45.594;9.294;2023-07-20T02:33:50;99051.88;;;28.09;58.49
18819;BME280;9537;45.594;9.294;2023-07-20T02:34:51;99054.22;;;28.02;58.94
18819;BME280;9537;45.594;9.294;2023-07-20T02:35:53;99054.22;;;28.02;58.95
18819;BME280;9537;45.594;9.294;2023-07-20T02:36:54;99068.59;;;28.02;59.08
18819;BME280;9537;45.594;9.294;2023-07-20T02:37:58;99059.63;;;28.02;59.23
18819;BME280;9537;45.594;9.294;2023-07-20T02:38:58;99069.19;;;27.99;59.10
18819;BME280;9537;45.594;9.294;2023-07-20T02:39:59;99067.69;;;27.93;59.35
18819;BME280;9537;45.594;9.294;2023-07-20T02:41:02;99066.16;;;27.87;59.41
18819;BME280;9537;45.594;9.294;2023-07-20T02:42:03;99073.63;;;27.81;59.55
18819;BME280;9537;45.594;9.294;2023-07-20T02:43:05;99069.84;;;27.77;59.55
18819;BME280;9537;45.594;9.294;2023-07-20T02:44:05;99068.34;;;27.71;59.87
18819;BME280;9537;45.594;9.294;2023-07-20T02:45:07;99070.75;;;27.73;59.83
18819;BME280;9537;45.594;9.294;2023-07-20T02:46:09;99065.53;;;27.76;59.75
18819;BME280;9537;45.594;9.294;2023-07-20T02:47:09;99072.66;;;27.72;60.03
18819;BME280;9537;45.594;9.294;2023-07-20T02:48:11;99077.28;;;27.72;60.21
18819;BME280;9537;45.594;9.294;2023-07-20T02:49:13;99076.16;;;27.73;60.30
18819;BME280;9537;45.594;9.294;2023-07-20T02:50:14;99074.75;;;27.75;60.37
18819;BME280;9537;45.594;9.294;2023-07-20T02:51:16;99078.00;;;27.77;60.43
18819;BME280;9537;45.594;9.294;2023-07-20T02:52:16;99078.59;;;27.74;60.53
18819;BME280;9537;45.594;9.294;2023-07-20T02:53:18;99075.97;;;27.69;60.85
18819;BME280;9537;45.594;9.294;2023-07-20T02:54:19;99070.94;;;27.62;60.93
18819;BME280;9537;45.594;9.294;2023-07-20T02:55:20;99071.75;;;27.63;60.91
18819;BME280;9537;45.594;9.294;2023-07-20T02:56:21;99071.75;;;27.63;61.10
18819;BME280;9537;45.594;9.294;2023-07-20T02:57:23;99076.19;;;27.59;61.17
18819;BME280;9537;45.594;9.294;2023-07-20T02:58:24;99074.06;;;27.56;60.96
18819;BME280;9537;45.594;9.294;2023-07-20T02:59:25;99073.22;;;27.55;61.06
18819;BME280;9537;45.594;9.294;2023-07-20T03:00:26;99078.16;;;27.53;61.09
18819;BME280;9537;45.594;9.294;2023-07-20T03:01:28;99074.75;;;27.48;61.60
18819;BME280;9537;45.594;9.294;2023-07-20T03:02:29;99086.06;;;27.50;61.66
18819;BME280;9537;45.594;9.294;2023-07-20T03:03:31;99084.47;;;27.49;61.69
18819;BME280;9537;45.594;9.294;2023-07-20T03:04:33;99085.06;;;27.46;61.58
18819;BME280;9537;45.594;9.294;2023-07-20T03:05:35;99088.91;;;27.45;61.78
18819;BME280;9537;45.594;9.294;2023-07-20T03:06:38;99083.47;;;27.45;62.04
18819;BME280;9537;45.594;9.294;2023-07-20T03:07:40;99085.97;;;27.41;62.04
18819;BME280;9537;45.594;9.294;2023-07-20T03:08:43;99083.03;;;27.37;62.23
18819;BME280;9537;45.594;9.294;2023-07-20T03:09:45;99085.75;;;27.37;62.28
18819;BME280;9537;45.594;9.294;2023-07-20T03:10:48;99085.75;;;27.37;62.23
18819;BME280;9537;45.594;9.294;2023-07-20T03:11:49;99080.78;;;27.45;62.10
18819;BME280;9537;45.594;9.294;2023-07-20T03:12:51;99081.84;;;27.44;62.08
18819;BME280;9537;45.594;9.294;2023-07-20T03:13:52;99077.53;;;27.43;62.34
18819;BME280;9537;45.594;9.294;2023-07-20T03:14:53;99085.75;;;27.37;62.44
18819;BME280;9537;45.594;9.294;2023-07-20T03:15:54;99079.81;;;27.35;62.57
18819;BME280;9537;45.594;9.294;2023-07-20T03:16:56;99088.78;;;27.36;62.60
18819;BME280;9537;45.594;9.294;2023-07-20T03:17:56;99084.97;;;27.37;62.56
18819;BME280;9537;45.594;9.294;2023-07-20T03:18:58;99083.84;;;27.38;62.75
18819;BME280;9537;45.594;9.294;2023-07-20T03:20:01;99080.34;;;27.37;62.82
18819;BME280;9537;45.594;9.294;2023-07-20T03:21:03;99076.03;;;27.36;63.25
18819;BME280;9537;45.594;9.294;2023-07-20T03:22:04;99083.03;;;27.37;63.34
18819;BME280;9537;45.594;9.294;2023-07-20T03:23:05;99081.38;;;27.42;63.25
18819;BME280;9537;45.594;9.294;2023-07-20T03:24:06;99079.47;;;27.42;62.97
18819;BME280;9537;45.594;9.294;2023-07-20T03:25:08;99084.16;;;27.36;63.41
18819;BME280;9537;45.594;9.294;2023-07-20T03:26:10;99074.19;;;27.32;63.30
18819;BME280;9537;45.594;9.294;2023-07-20T03:27:11;99083.72;;;27.29;63.40
18819;BME280;9537;45.594;9.294;2023-07-20T03:28:12;99079.41;;;27.28;63.78
18819;BME280;9537;45.594;9.294;2023-07-20T03:29:13;99075.91;;;27.28;63.66
18819;BME280;9537;45.594;9.294;2023-07-20T03:30:16;99084.03;;;27.28;63.63
18819;BME280;9537;45.594;9.294;2023-07-20T03:31:17;99085.13;;;27.27;63.63
18819;BME280;9537;45.594;9.294;2023-07-20T03:32:19;99083.25;;;27.27;63.97
18819;BME280;9537;45.594;9.294;2023-07-20T03:33:19;99079.69;;;27.27;64.08
18819;BME280;9537;45.594;9.294;2023-07-20T03:34:21;99085.72;;;27.24;64.11
18819;BME280;9537;45.594;9.294;2023-07-20T03:35:23;99082.94;;;27.29;63.90
18819;BME280;9537;45.594;9.294;2023-07-20T03:36:25;99090.06;;;27.25;63.75
18819;BME280;9537;45.594;9.294;2023-07-20T03:37:26;99086.03;;;27.22;63.68
18819;BME280;9537;45.594;9.294;2023-07-20T03:38:27;99089.03;;;27.21;63.90
18819;BME280;9537;45.594;9.294;2023-07-20T03:39:29;99080.09;;;27.20;63.92
18819;BME280;9537;45.594;9.294;2023-07-20T03:40:30;99087.44;;;27.20;63.99
18819;BME280;9537;45.594;9.294;2023-07-20T03:41:32;99085.00;;;27.18;64.32
18819;BME280;9537;45.594;9.294;2023-07-20T03:42:32;99087.44;;;27.20;64.50
18819;BME280;9537;45.594;9.294;2023-07-20T03:43:34;99083.91;;;27.19;64.73
18819;BME280;9537;45.594;9.294;2023-07-20T03:44:35;99089.63;;;27.17;64.96
18819;BME280;9537;45.594;9.294;2023-07-20T03:45:37;99084.19;;;27.17;65.04
18819;BME280;9537;45.594;9.294;2023-07-20T03:46:37;99092.03;;;27.19;65.08
18819;BME280;9537;45.594;9.294;2023-07-20T03:47:39;99093.56;;;27.25;65.06
18819;BME280;9537;45.594;9.294;2023-07-20T03:48:40;99089.75;;;27.26;64.99
18819;BME280;9537;45.594;9.294;2023-07-20T03:49:41;99095.69;;;27.28;65.21
18819;BME280;9537;45.594;9.294;2023-07-20T03:50:43;99095.88;;;27.32;65.29
18819;BME280;9537;45.594;9.294;2023-07-20T03:51:45;99098.59;;;27.32;65.26
18819;BME280;9537;45.594;9.294;2023-07-20T03:52:46;99099.63;;;27.36;65.42
18819;BME280;9537;45.594;9.294;2023-07-20T03:53:48;99093.19;;;27.32;65.48
18819;BME280;9537;45.594;9.294;2023-07-20T03:54:49;99101.81;;;27.34;65.46
18819;BME280;9537;45.594;9.294;2023-07-20T03:55:52;99099.91;;;27.34;65.60
18819;BME280;9537;45.594;9.294;2023-07-20T03:56:53;99096.41;;;27.34;65.71
18819;BME280;9537;45.594;9.294;2023-07-20T03:57:55;99097.19;;;27.34;65.59
18819;BME280;9537;45.594;9.294;2023-07-20T03:58:55;99101.75;;;27.39;65.42
18819;BME280;9537;45.594;9.294;2023-07-20T03:59:57;99099.03;;;27.39;65.13
18819;BME280;9537;45.594;9.294;2023-07-20T04:00:58;99099.84;;;27.39;65.18
18819;BME280;9537;45.594;9.294;2023-07-20T04:02:00;99106.06;;;27.40;65.46
18819;BME280;9537;45.594;9.294;2023-07-20T04:03:01;99100.13;;;27.38;65.46
18819;BME280;9537;45.594;9.294;2023-07-20T04:04:05;99098.53;;;27.37;65.49
18819;BME280;9537;45.594;9.294;2023-07-20T04:05:07;99100.44;;;27.36;65.60
18819;BME280;9537;45.594;9.294;2023-07-20T04:06:10;99095.50;;;27.38;65.56
18819;BME280;9537;45.594;9.294;2023-07-20T04:07:10;99101.22;;;27.37;65.43
18819;BME280;9537;45.594;9.294;2023-07-20T04:08:11;99111.28;;;27.36;65.60
18819;BME280;9537;45.594;9.294;2023-07-20T04:09:13;99107.44;;;27.37;65.58
18819;BME280;9537;45.594;9.294;2023-07-20T04:10:14;99106.66;;;27.37;65.58
18819;BME280;9537;45.594;9.294;2023-07-20T04:11:16;99098.53;;;27.37;65.72
18819;BME280;9537;45.594;9.294;2023-07-20T04:12:16;99107.75;;;27.36;65.86
18819;BME280;9537;45.594;9.294;2023-07-20T04:13:18;99100.22;;;27.33;66.05
18819;BME280;9537;45.594;9.294;2023-07-20T04:14:19;99105.94;;;27.31;65.86
18819;BME280;9537;45.594;9.294;2023-07-20T04:15:20;99108.94;;;27.30;65.93
18819;BME280;9537;45.594;9.294;2023-07-20T04:16:21;99108.66;;;27.31;65.98
18819;BME280;9537;45.594;9.294;2023-07-20T04:17:23;99106.44;;;27.33;65.84
18819;BME280;9537;45.594;9.294;2023-07-20T04:18:24;99105.34;;;27.34;65.44
18819;BME280;9537;45.594;9.294;2023-07-20T04:19:25;99115.06;;;27.35;65.71
18819;BME280;9537;45.594;9.294;2023-07-20T04:20:26;99117.56;;;27.32;66.04
18819;BME280;9537;45.594;9.294;2023-07-20T04:21:29;99117.56;;;27.32;66.07
18819;BME280;9537;45.594;9.294;2023-07-20T04:22:30;99115.38;;;27.34;65.86
18819;BME280;9537;45.594;9.294;2023-07-20T04:23:32;99114.88;;;27.32;66.01
18819;BME280;9537;45.594;9.294;2023-07-20T04:24:32;99129.75;;;27.34;65.88
18819;BME280;9537;45.594;9.294;2023-07-20T04:25:34;99119.41;;;27.36;65.75
18819;BME280;9537;45.594;9.294;2023-07-20T04:26:39;99122.91;;;27.37;65.79
18819;BME280;9537;45.594;9.294;2023-07-20T04:27:41;99131.34;;;27.35;65.74
18819;BME280;9537;45.594;9.294;2023-07-20T04:28:41;99121.41;;;27.31;66.09
18819;BME280;9537;45.594;9.294;2023-07-20T04:29:43;99120.59;;;27.30;66.04
18819;BME280;9537;45.594;9.294;2023-07-20T04:30:44;99122.78;;;27.28;66.12
18819;BME280;9537;45.594;9.294;2023-07-20T04:31:46;99115.78;;;27.27;66.02
18819;BME280;9537;45.594;9.294;2023-07-20T04:32:46;99120.69;;;27.25;66.11
18819;BME280;9537;45.594;9.294;2023-07-20T04:33:48;99115.53;;;27.24;66.09
18819;BME280;9537;45.594;9.294;2023-07-20T04:34:49;99114.66;;;27.28;66.00
18819;BME280;9537;45.594;9.294;2023-07-20T04:35:51;99112.22;;;27.27;66.02
18819;BME280;9537;45.594;9.294;2023-07-20T04:36:54;99121.69;;;27.29;66.01
18819;BME280;9537;45.594;9.294;2023-07-20T04:37:55;99117.06;;;27.30;65.96
18819;BME280;9537;45.594;9.294;2023-07-20T04:38:56;99119.22;;;27.33;65.78
18819;BME280;9537;45.594;9.294;2023-07-20T04:39:57;99115.19;;;27.30;65.62
18819;BME280;9537;45.594;9.294;2023-07-20T04:40:59;99117.66;;;27.27;65.67
18819;BME280;9537;45.594;9.294;2023-07-20T04:41:59;99117.06;;;27.30;65.75
18819;BME280;9537;45.594;9.294;2023-07-20T04:43:01;99116.78;;;27.31;65.67
18819;BME280;9537;45.594;9.294;2023-07-20T04:44:02;99121.59;;;27.34;65.64
18819;BME280;9537;45.594;9.294;2023-07-20T04:45:03;99118.91;;;27.34;65.61
18819;BME280;9537;45.594;9.294;2023-07-20T04:46:05;99113.47;;;27.34;65.61
18819;BME280;9537;45.594;9.294;2023-07-20T04:47:06;99125.91;;;27.35;65.61
18819;BME280;9537;45.594;9.294;2023-07-20T04:48:12;99127.03;;;27.34;65.74
18819;BME280;9537;45.594;9.294;2023-07-20T04:49:13;99115.97;;;27.31;66.07
18819;BME280;9537;45.594;9.294;2023-07-20T04:50:15;99122.78;;;27.28;66.27
18819;BME280;9537;45.594;9.294;2023-07-20T04:51:16;99123.06;;;27.27;66.37
18819;BME280;9537;45.594;9.294;2023-07-20T04:52:22;99122.00;;;27.28;66.42
18819;BME280;9537;45.594;9.294;2023-07-20T04:53:23;99117.38;;;27.28;66.39
18819;BME280;9537;45.594;9.294;2023-07-20T04:54:25;99122.78;;;27.28;66.53
18819;BME280;9537;45.594;9.294;2023-07-20T04:55:27;99122.28;;;27.26;66.34
18819;BME280;9537;45.594;9.294;2023-07-20T04:56:29;99118.47;;;27.27;66.44
18819;BME280;9537;45.594;9.294;2023-07-20T04:57:30;99122.00;;;27.28;66.45
18819;BME280;9537;45.594;9.294;2023-07-20T04:58:31;99118.47;;;27.27;66.36
18819;BME280;9537;45.594;9.294;2023-07-20T04:59:32;99128.50;;;27.27;66.43
18819;BME280;9537;45.594;9.294;2023-07-20T05:00:34;99118.47;;;27.27;66.49
18819;BME280;9537;45.594;9.294;2023-07-20T05:01:35;99118.47;;;27.27;66.46
18819;BME280;9537;45.594;9.294;2023-07-20T05:02:37;99124.41;;;27.29;66.49
18819;BME280;9537;45.594;9.294;2023-07-20T05:03:38;99121.09;;;27.32;66.27
18819;BME280;9537;45.594;9.294;2023-07-20T05:04:38;99125.72;;;27.32;66.23
18819;BME280;9537;45.594;9.294;2023-07-20T05:05:40;99123.91;;;27.27;66.48
18819;BME280;9537;45.594;9.294;2023-07-20T05:06:41;99122.28;;;27.26;66.40
18819;BME280;9537;45.594;9.294;2023-07-20T05:07:44;99123.66;;;27.24;66.89
18819;BME280;9537;45.594;9.294;2023-07-20T05:08:45;99122.59;;;27.25;66.75
18819;BME280;9537;45.594;9.294;2023-07-20T05:09:47;99123.97;;;27.22;66.78
18819;BME280;9537;45.594;9.294;2023-07-20T05:10:47;99124.25;;;27.21;67.20
18819;BME280;9537;45.594;9.294;2023-07-20T05:11:52;99115.38;;;27.15;67.32
18819;BME280;9537;45.594;9.294;2023-07-20T05:12:53;99128.69;;;27.16;67.57
18819;BME280;9537;45.594;9.294;2023-07-20T05:13:54;99128.09;;;27.20;67.50
18819;BME280;9537;45.594;9.294;2023-07-20T05:14:55;99119.63;;;27.21;67.62
18819;BME280;9537;45.594;9.294;2023-07-20T05:15:56;99128.09;;;27.20;67.74
18819;BME280;9537;45.594;9.294;2023-07-20T05:16:57;99123.47;;;27.20;67.82
18819;BME280;9537;45.594;9.294;2023-07-20T05:17:58;99124.56;;;27.19;67.70
18819;BME280;9537;45.594;9.294;2023-07-20T05:19:00;99122.66;;;27.20;67.66
18819;BME280;9537;45.594;9.294;2023-07-20T05:20:01;99131.59;;;27.20;67.81
18819;BME280;9537;45.594;9.294;2023-07-20T05:21:05;99124.06;;;27.17;67.56
18819;BME280;9537;45.594;9.294;2023-07-20T05:22:06;99125.66;;;27.18;67.90
18819;BME280;9537;45.594;9.294;2023-07-20T05:23:09;99125.91;;;27.22;67.72
18819;BME280;9537;45.594;9.294;2023-07-20T05:24:10;99122.06;;;27.23;67.56
18819;BME280;9537;45.594;9.294;2023-07-20T05:25:12;99120.47;;;27.22;67.83
18819;BME280;9537;45.594;9.294;2023-07-20T05:26:12;99114.81;;;27.18;67.74
18819;BME280;9537;45.594;9.294;2023-07-20T05:27:14;99122.66;;;27.20;67.68
18819;BME280;9537;45.594;9.294;2023-07-20T05:28:15;99118.63;;;27.17;67.85
18819;BME280;9537;45.594;9.294;2023-07-20T05:29:17;99120.22;;;27.18;68.03
18819;BME280;9537;45.594;9.294;2023-07-20T05:30:18;99119.19;;;27.14;67.94
18819;BME280;9537;45.594;9.294;2023-07-20T05:31:22;99117.59;;;27.13;68.00
18819;BME280;9537;45.594;9.294;2023-07-20T05:32:23;99124.63;;;27.14;67.97
18819;BME280;9537;45.594;9.294;2023-07-20T05:33:25;99125.66;;;27.18;67.70
18819;BME280;9537;45.594;9.294;2023-07-20T05:34:25;99122.66;;;27.20;67.09